Terminal Aerodrome Forecast
Issued by NWS

Home | Current Version | Previous Version | Text Only | Print | Product List | Glossary On
Versions: 1 2 3 4 5 6 7 8 9 10 11 12 13
000
FTUS45 KABQ 221800 RRA
TAFLVS
TAF
KLVS 221800Z 2218/2318 22015KT P6SM VCSH BKN070
      TEMPO 2218/2220 -SHRA BKN060
     FM222300 25012KT P6SM VCTS BKN050CB
      TEMPO 2223/2302 VRB15G25KT -SHRA BKN040
     FM230200 23009KT P6SM VCSH BKN040
     FM230600 26007KT P6SM SCT040=

USA.gov is the U.S. government's official web portal to all federal, state and local government web resources and services.